Impacts METAR Board
IDs:

KPHX - Phoenix/Sky Harbor, AZ, US

Updated at: 0100 UTC 31 May 2020
Potential Impact None Slight Moderate High
Time 30/13Z 30/14Z 30/15Z 30/16Z 30/17Z 30/18Z 30/19Z 30/20Z 30/21Z 30/22Z 30/23Z 31/00Z 31/01Z
Temp87 88 92 93 97 101 103 105 108 111 110 109 107
Dewpt44 46 44 44 43 44 44 45 44 44 44 45 45
Altim29.83 29.83 29.84 29.84 29.83 29.82 29.80 29.76 29.73 29.70 29.67 29.65 29.65
VIS10 10 10 10 10 10 10 10 10 10 10 10 10
CIG250 250 220 220 220 250 -- -- -- -- -- -- --
CoverBKNBKNBKNBKNBKNBKNSCTSCTSCTSCTSCTSCTSCT
FltCatVFRVFRVFRVFRVFRVFRVFRVFRVFRVFRVFRVFRVFR
WX--------------------------
WDir0024000011090220170180280280
WSpd0 0 4 0 0 4 4 5 10 10 11 10 12
WGst-- -- -- -- -- -- -- -- 14 17 -- -- --
Raw hourly METARs
KPHX 301251Z 00000KT 10SM FEW120 SCT170 BKN250 31/07 A2983 RMK AO2 SLP076 T03060067
KPHX 301351Z 00000KT 10SM FEW130 SCT170 BKN250 31/08 A2983 RMK AO2 SLP078 T03110078
KPHX 301451Z 24004KT 10SM FEW110 SCT160 BKN220 33/07 A2984 RMK AO2 SLP082 T03330067 51012
KPHX 301551Z 00000KT 10SM FEW120 SCT150 BKN220 34/07 A2984 RMK AO2 SLP083 VIRGA SW AND W T03390067
KPHX 301651Z 00000KT 10SM FEW120 SCT150 BKN220 36/06 A2983 RMK AO2 SLP078 T03610061
KPHX 301751Z VRB04KT 10SM SCT160 BKN250 38/07 A2982 RMK AO2 SLP073 T03830067 10383 20289 58009
KPHX 301851Z 11004KT 10SM FEW120 SCT170 SCT250 39/07 A2980 RMK AO2 SLP066 T03940067
KPHX 301951Z 09005KT 10SM FEW100 FEW160 SCT200 41/07 A2976 RMK AO2 SLP055 T04060072
KPHX 302051Z 22010G14KT 190V270 10SM FEW100 FEW150 SCT200 42/07 A2973 RMK AO2 SLP043 T04220067 58029
KPHX 302151Z 17010G17KT 10SM FEW100 FEW150 SCT200 44/07 A2970 RMK AO2 SLP033 T04390067
KPHX 302251Z 18011KT 10SM FEW100 FEW150 SCT200 43/07 A2967 RMK AO2 SLP023 CB DSNT SE T04330067
KPHX 302351Z 28010KT 10SM FEW100 FEW150 SCT200 SCT250 43/07 A2965 RMK AO2 WSHFT 2309 SLP017 CB DSNT SE T04280072 10439 20372 56025
KPHX 310051Z 28012KT 10SM FEW100 FEW150 SCT200 SCT250 42/07 A2965 RMK AO2 SLP016 CB DSNT SE T04170072



Page loaded:  01:00 UTC  |   06:00 PM Pacific  |   07:00 PM Mountain  |   08:00 PM Central  |   09:00 PM Eastern

 

ADVISORIES

FORECASTS

FORECASTS

OBSERVATIONS

USER TOOLS

ABOUT US